createdAt,value
2019-02-05T00:01:09.932Z,101959.41
2019-02-05T00:03:36.979Z,101959.28
2019-02-05T00:06:05.041Z,101965.55
2019-02-05T00:08:32.457Z,101961.78
2019-02-05T00:10:59.599Z,101968.74
2019-02-05T00:13:26.660Z,101966.73
2019-02-05T00:15:53.753Z,101965.19
2019-02-05T00:18:20.788Z,101961.66
2019-02-05T00:20:47.841Z,101974.11
2019-02-05T00:23:15.320Z,101963.77
2019-02-05T00:25:42.377Z,101966.06
2019-02-05T00:28:09.932Z,101958.50
2019-02-05T00:30:37.587Z,101963.05
2019-02-05T00:33:04.946Z,101960.91
2019-02-05T00:35:32.327Z,101967.96
2019-02-05T00:37:59.674Z,101969.47
2019-02-05T00:40:27.212Z,101972.75
2019-02-05T00:42:54.585Z,101972.84
2019-02-05T00:45:21.938Z,101981.40
2019-02-05T00:47:49.793Z,101970.98
2019-02-05T00:50:17.242Z,101972.56
2019-02-05T00:52:44.567Z,101976.52
2019-02-05T00:55:12.154Z,101963.69
2019-02-05T00:57:39.513Z,101975.62
2019-02-05T01:00:16.078Z,101965.37
2019-02-05T01:02:43.742Z,101965.37
2019-02-05T01:05:11.404Z,101970.67
2019-02-05T01:07:38.802Z,101977.09
2019-02-05T01:10:06.418Z,101977.27
2019-02-05T01:12:34.183Z,101971.97
2019-02-05T01:15:02.172Z,101977.39
2019-02-05T01:17:30.033Z,101977.70
2019-02-05T01:19:57.073Z,101977.40
2019-02-05T01:22:24.262Z,101980.08
2019-02-05T01:24:51.309Z,101983.88
2019-02-05T01:27:18.422Z,101983.16
2019-02-05T01:29:45.479Z,101973.72
2019-02-05T01:32:12.910Z,101975.47
2019-02-05T01:34:40.609Z,101979.17
2019-02-05T01:37:07.944Z,101969.32
2019-02-05T01:39:36.207Z,101969.17
2019-02-05T01:42:04.688Z,101971.70
2019-02-05T01:44:32.551Z,101976.31
2019-02-05T01:47:02.001Z,101974.17
2019-02-05T01:49:29.716Z,101964.73
2019-02-05T01:51:57.073Z,101973.95
2019-02-05T01:54:24.432Z,101979.26
2019-02-05T01:56:51.460Z,101984.30
2019-02-05T01:59:18.510Z,101970.28
2019-02-05T02:01:46.284Z,101986.73
2019-02-05T02:04:13.353Z,101964.83
2019-02-05T02:06:40.685Z,101972.03
2019-02-05T02:09:09.475Z,101969.05
2019-02-05T02:11:37.069Z,101981.13
2019-02-05T02:14:04.692Z,101978.45
2019-02-05T02:16:31.808Z,101999.82
2019-02-05T02:18:59.884Z,101980.31
2019-02-05T02:21:28.723Z,101983.39
2019-02-05T02:23:56.061Z,101981.13
2019-02-05T02:26:24.027Z,101973.22
2019-02-05T02:28:51.490Z,101974.77
2019-02-05T02:31:19.274Z,101966.18
2019-02-05T02:33:46.318Z,101972.36
2019-02-05T02:36:14.062Z,101970.48
2019-02-05T02:38:41.114Z,101984.29
2019-02-05T02:41:08.227Z,101975.09
2019-02-05T02:43:36.250Z,101984.52
2019-02-05T02:46:03.869Z,101976.69
2019-02-05T02:48:31.145Z,101985.68
2019-02-05T02:50:58.192Z,101987.93
2019-02-05T02:53:25.849Z,101984.55
2019-02-05T02:55:53.612Z,101977.34
2019-02-05T02:58:20.638Z,101979.19
2019-02-05T03:00:48.081Z,101986.80
2019-02-05T03:03:15.443Z,101977.90
2019-02-05T03:05:44.688Z,101987.34
2019-02-05T03:08:12.126Z,101979.33
2019-02-05T03:10:39.333Z,101981.89
2019-02-05T03:13:13.251Z,101996.33
2019-02-05T03:15:41.443Z,101986.80
2019-02-05T03:18:09.225Z,101999.02
2019-02-05T03:20:37.785Z,101996.61
2019-02-05T03:23:05.971Z,101989.80
2019-02-05T03:25:33.343Z,101991.53
2019-02-05T03:28:02.234Z,101977.36
2019-02-05T03:30:30.834Z,101977.16
2019-02-05T03:32:57.972Z,101978.97
2019-02-05T03:35:25.012Z,101978.02
2019-02-05T03:37:52.597Z,101977.38
2019-02-05T03:40:58.306Z,101978.19
2019-02-05T03:43:27.316Z,101978.16
2019-02-05T03:45:55.481Z,101991.37
2019-02-05T03:48:24.476Z,101991.81
2019-02-05T03:50:56.644Z,101982.67
2019-02-05T03:53:24.713Z,101999.37
2019-02-05T03:56:08.560Z,101995.09
2019-02-05T03:59:26.805Z,102004.41
2019-02-05T04:02:36.244Z,101996.98
2019-02-05T04:05:40.062Z,101996.55
2019-02-05T04:08:37.725Z,101991.23
2019-02-05T04:11:51.437Z,101986.98
2019-02-05T04:15:12.629Z,101997.62
2019-02-05T04:17:59.584Z,101996.06
2019-02-05T04:21:13.860Z,102005.38
2019-02-05T04:24:08.010Z,102001.09
2019-02-05T04:26:58.449Z,101994.67
2019-02-05T04:29:52.758Z,102010.99
2019-02-05T04:32:37.059Z,102005.16
2019-02-05T04:35:51.285Z,102008.20
2019-02-05T04:39:11.807Z,102001.32
2019-02-05T04:42:20.336Z,102003.47
2019-02-05T04:45:33.767Z,102003.08
2019-02-05T04:48:36.432Z,102007.72
2019-02-05T04:51:41.794Z,102007.27
2019-02-05T04:54:26.762Z,102004.05
2019-02-05T04:57:20.006Z,102007.75
2019-02-05T05:00:19.638Z,102001.45
2019-02-05T05:03:33.781Z,102013.48
2019-02-05T05:06:24.694Z,102016.73
2019-02-05T05:09:18.892Z,102020.92
2019-02-05T05:11:46.653Z,102018.39
2019-02-05T05:14:15.542Z,102022.05
2019-02-05T05:16:43.091Z,102029.94
2019-02-05T05:19:10.162Z,102024.94
2019-02-05T05:21:38.022Z,102028.64
2019-02-05T05:24:05.477Z,102032.86
2019-02-05T05:26:32.627Z,102032.86
2019-02-05T05:28:59.704Z,102037.00
2019-02-05T05:31:28.256Z,102034.52
2019-02-05T05:33:56.217Z,102045.22
2019-02-05T05:36:23.379Z,102038.03
2019-02-05T05:38:52.926Z,102045.57
2019-02-05T05:41:21.451Z,102041.91
2019-02-05T05:43:48.802Z,102056.23
2019-02-05T05:46:15.858Z,102047.71
2019-02-05T05:48:43.628Z,102044.83
2019-02-05T05:51:12.401Z,102058.08
2019-02-05T05:53:40.063Z,102052.61
2019-02-05T05:56:07.130Z,102055.55
2019-02-05T05:58:34.610Z,102058.16
2019-02-05T06:01:02.046Z,102060.30
2019-02-05T06:03:29.449Z,102061.47
2019-02-05T06:05:56.489Z,102062.19
2019-02-05T06:08:26.073Z,102064.02
2019-02-05T06:10:53.391Z,102061.83
2019-02-05T06:13:20.682Z,102062.48
2019-02-05T06:15:49.528Z,102052.68
2019-02-05T06:18:17.798Z,102063.03
2019-02-05T06:20:45.768Z,102071.58
2019-02-05T06:23:13.536Z,102067.16
2019-02-05T06:25:40.898Z,102073.03
2019-02-05T06:28:08.080Z,102077.83
2019-02-05T06:30:35.395Z,102075.56
2019-02-05T06:33:02.745Z,102074.80
2019-02-05T06:35:31.649Z,102089.12
2019-02-05T06:37:58.989Z,102077.37
2019-02-05T06:40:27.782Z,102083.73
2019-02-05T06:42:55.189Z,102075.79
2019-02-05T06:45:23.923Z,102081.04
2019-02-05T06:47:52.404Z,102095.94
2019-02-05T06:50:19.757Z,102101.33
2019-02-05T06:52:47.168Z,102100.62
2019-02-05T06:55:17.230Z,102099.83
2019-02-05T06:57:46.024Z,102099.83
2019-02-05T07:00:19.654Z,102108.53
2019-02-05T07:02:48.207Z,102105.77
2019-02-05T07:05:15.345Z,102110.34
2019-02-05T07:07:43.409Z,102114.61
2019-02-05T07:10:13.186Z,102116.48
2019-02-05T07:12:40.221Z,102131.55
2019-02-05T07:15:08.150Z,102133.06
2019-02-05T07:17:36.322Z,102136.69
2019-02-05T07:20:04.252Z,102141.84
2019-02-05T07:22:31.645Z,102142.50
2019-02-05T07:24:58.886Z,102142.82
2019-02-05T07:27:25.894Z,102149.77
2019-02-05T07:29:53.315Z,102147.52
2019-02-05T07:32:20.371Z,102153.17
2019-02-05T07:34:47.697Z,102144.85
2019-02-05T07:37:14.718Z,102149.94
2019-02-05T07:39:43.127Z,102154.86
2019-02-05T07:42:10.156Z,102152.72
2019-02-05T07:44:40.151Z,102152.36
2019-02-05T07:47:07.393Z,102167.20
2019-02-05T07:49:34.835Z,102160.14
2019-02-05T07:52:02.467Z,102168.47
2019-02-05T07:54:30.426Z,102167.78
2019-02-05T07:56:57.695Z,102174.50
2019-02-05T07:59:24.717Z,102177.37
2019-02-05T08:01:51.878Z,102169.20
2019-02-05T08:04:19.543Z,102179.80
2019-02-05T08:06:47.407Z,102185.55
2019-02-05T08:09:14.519Z,102185.91
2019-02-05T08:11:41.932Z,102176.08
2019-02-05T08:14:09.584Z,102179.91
2019-02-05T08:16:36.723Z,102178.79
2019-02-05T08:19:04.135Z,102196.63
2019-02-05T08:21:31.648Z,102193.09
2019-02-05T08:23:58.677Z,102190.64
2019-02-05T08:26:26.446Z,102197.25
2019-02-05T08:28:53.797Z,102197.34
2019-02-05T08:31:21.081Z,102199.87
2019-02-05T08:33:48.316Z,102204.58
2019-02-05T08:36:15.359Z,102209.49
2019-02-05T08:38:42.749Z,102209.98
2019-02-05T08:41:09.819Z,102221.73
2019-02-05T08:43:37.227Z,102214.08
2019-02-05T08:46:04.993Z,102231.52
2019-02-05T08:48:32.132Z,102214.95
2019-02-05T08:50:59.214Z,102212.02
2019-02-05T08:53:27.271Z,102207.64
2019-02-05T08:55:54.321Z,102218.33
2019-02-05T08:58:30.536Z,102228.11
2019-02-05T09:00:50.450Z,102218.06
2019-02-05T09:03:18.671Z,102225.28
2019-02-05T09:05:45.721Z,102225.25
2019-02-05T09:08:13.672Z,102219.56
2019-02-05T09:10:41.765Z,102226.47
2019-02-05T09:13:09.454Z,102229.45
2019-02-05T09:15:36.916Z,102224.18
2019-02-05T09:18:05.601Z,102232.32
2019-02-05T09:20:34.084Z,102242.98
2019-02-05T09:23:01.435Z,102247.65
2019-02-05T09:25:29.195Z,102252.65
2019-02-05T09:27:56.260Z,102258.51
2019-02-05T09:30:25.625Z,102265.60
2019-02-05T09:32:54.612Z,102259.91
2019-02-05T09:35:21.671Z,102245.48
2019-02-05T09:37:51.086Z,102256.31
2019-02-05T09:40:24.069Z,102256.11
2019-02-05T09:42:51.128Z,102256.43
2019-02-05T09:45:18.690Z,102252.61
2019-02-05T09:47:46.138Z,102255.34
2019-02-05T09:50:13.801Z,102261.30
2019-02-05T09:52:40.862Z,102260.17
2019-02-05T09:55:10.632Z,102271.27
2019-02-05T09:57:38.322Z,102268.30
2019-02-05T10:00:11.037Z,102258.62
2019-02-05T10:02:38.764Z,102265.89
2019-02-05T10:05:07.655Z,102252.81
2019-02-05T10:07:35.314Z,102268.96
2019-02-05T10:10:03.089Z,102264.50
2019-02-05T10:12:31.152Z,102280.15
2019-02-05T10:14:59.631Z,102279.91
2019-02-05T10:17:27.001Z,102280.84
2019-02-05T10:19:54.019Z,102279.36
2019-02-05T10:22:21.388Z,102281.73
2019-02-05T10:24:49.918Z,102287.03
2019-02-05T10:27:17.942Z,102275.30
2019-02-05T10:29:56.537Z,102278.81
2019-02-05T10:32:15.555Z,102273.23
2019-02-05T10:34:43.186Z,102264.81
2019-02-05T10:37:10.540Z,102299.78
2019-02-05T10:39:37.887Z,102282.72
2019-02-05T10:42:05.559Z,102276.36
2019-02-05T10:44:33.508Z,102289.62
2019-02-05T10:47:00.920Z,102277.78
2019-02-05T10:49:28.225Z,102271.67
2019-02-05T10:51:55.691Z,102281.63
2019-02-05T10:54:23.350Z,102274.55
2019-02-05T10:56:50.847Z,102279.02
2019-02-05T10:59:18.273Z,102281.48
2019-02-05T11:01:45.621Z,102294.69
2019-02-05T11:04:13.064Z,102300.63
2019-02-05T11:06:40.203Z,102287.75
2019-02-05T11:09:09.621Z,102291.86
2019-02-05T11:11:38.030Z,102297.56
2019-02-05T11:14:05.554Z,102295.34
2019-02-05T11:16:32.631Z,102302.49
2019-02-05T11:18:59.963Z,102297.91
2019-02-05T11:21:27.341Z,102305.38
2019-02-05T11:23:55.288Z,102314.27
2019-02-05T11:26:22.307Z,102307.30
2019-02-05T11:28:49.342Z,102321.31
2019-02-05T11:31:16.774Z,102305.45
2019-02-05T11:33:43.811Z,102318.02
2019-02-05T11:36:11.155Z,102313.97
2019-02-05T11:38:38.211Z,102304.85
2019-02-05T11:41:05.593Z,102308.55
2019-02-05T11:43:32.910Z,102306.89
2019-02-05T11:46:00.771Z,102301.08
2019-02-05T11:48:27.859Z,102321.53
2019-02-05T11:50:55.260Z,102309.98
2019-02-05T11:53:22.376Z,102293.34
2019-02-05T11:55:49.766Z,102306.78
2019-02-05T11:58:18.452Z,102300.80
2019-02-05T12:01:03.315Z,102306.05
2019-02-05T12:03:30.367Z,102292.30
2019-02-05T12:05:57.386Z,102305.59
2019-02-05T12:08:24.425Z,102304.23
2019-02-05T12:10:51.462Z,102298.36
2019-02-05T12:13:19.541Z,102266.05
2019-02-05T12:15:47.898Z,102299.78
2019-02-05T12:18:20.944Z,102305.91
2019-02-05T12:20:49.009Z,102309.21
2019-02-05T12:23:16.075Z,102295.73
2019-02-05T12:25:44.741Z,102311.23
2019-02-05T12:28:12.404Z,102307.20
2019-02-05T12:30:45.028Z,102307.59
2019-02-05T12:33:09.353Z,102317.23
2019-02-05T12:35:37.231Z,102308.97
2019-02-05T12:38:06.530Z,102300.56
2019-02-05T12:40:34.051Z,102301.93
2019-02-05T12:43:01.092Z,102305.45
2019-02-05T12:45:29.310Z,102304.99
2019-02-05T12:47:56.711Z,102299.78
2019-02-05T12:50:26.569Z,102305.52
2019-02-05T12:52:55.466Z,102291.84
2019-02-05T12:55:23.830Z,102296.16
2019-02-05T12:57:50.879Z,102296.39
2019-02-05T13:00:24.398Z,102299.85
2019-02-05T13:02:54.422Z,102301.73
2019-02-05T13:05:20.664Z,102292.63
2019-02-05T13:07:47.755Z,102300.17
2019-02-05T13:10:17.355Z,102311.57
2019-02-05T13:12:44.380Z,102303.02
2019-02-05T13:15:11.551Z,102308.11
2019-02-05T13:17:42.926Z,102308.08
2019-02-05T13:20:14.037Z,102316.07
2019-02-05T13:22:41.460Z,102304.48
2019-02-05T13:25:12.959Z,102317.44
2019-02-05T13:27:40.017Z,102309.81
2019-02-05T13:30:08.282Z,102305.58
2019-02-05T13:32:35.302Z,102317.44
2019-02-05T13:35:02.671Z,102312.41
2019-02-05T13:37:31.206Z,102308.92
2019-02-05T13:39:58.247Z,102310.73
2019-02-05T13:42:25.906Z,102297.06
2019-02-05T13:44:52.942Z,102321.80
2019-02-05T13:47:21.012Z,102299.23
2019-02-05T13:49:48.475Z,102308.73
2019-02-05T13:52:16.488Z,102312.80
2019-02-05T13:54:43.517Z,102318.54
2019-02-05T13:57:11.062Z,102311.52
2019-02-05T13:59:39.580Z,102309.10
2019-02-05T14:02:07.202Z,102323.11
2019-02-05T14:04:34.255Z,102316.33
2019-02-05T14:07:01.279Z,102319.06
2019-02-05T14:09:29.670Z,102324.16
2019-02-05T14:11:57.069Z,102322.15
2019-02-05T14:14:25.728Z,102327.13
2019-02-05T14:16:53.387Z,102332.59
2019-02-05T14:19:21.036Z,102321.65
2019-02-05T14:21:48.382Z,102332.49
2019-02-05T14:24:15.856Z,102339.50
2019-02-05T14:26:43.554Z,102343.94
2019-02-05T14:29:12.290Z,102343.80
2019-02-05T14:31:39.654Z,102350.50
2019-02-05T14:34:06.706Z,102356.69
2019-02-05T14:36:34.358Z,102362.80
2019-02-05T14:39:01.493Z,102358.69
2019-02-05T14:41:30.703Z,102359.70
2019-02-05T14:43:58.090Z,102360.20
2019-02-05T14:46:25.369Z,102351.61
2019-02-05T14:48:52.445Z,102370.77
2019-02-05T14:51:19.463Z,102363.54
2019-02-05T14:53:46.863Z,102369.31
2019-02-05T14:56:13.903Z,102370.07
2019-02-05T14:58:41.170Z,102367.77
2019-02-05T15:01:08.515Z,102376.81
2019-02-05T15:03:35.595Z,102374.89
2019-02-05T15:06:03.020Z,102370.54
2019-02-05T15:08:30.802Z,102375.86
2019-02-05T15:10:59.793Z,102376.34
2019-02-05T15:13:26.815Z,102379.94
2019-02-05T15:15:53.846Z,102375.98
2019-02-05T15:18:23.229Z,102385.84
2019-02-05T15:20:50.483Z,102383.47
2019-02-05T15:23:17.503Z,102388.34
2019-02-05T15:25:44.825Z,102390.42
2019-02-05T15:28:12.586Z,102385.06
2019-02-05T15:30:42.129Z,102385.92
2019-02-05T15:33:34.942Z,102384.05
2019-02-05T15:36:08.031Z,102387.59
2019-02-05T15:38:35.386Z,102391.89
2019-02-05T15:41:03.990Z,102395.38
2019-02-05T15:43:31.321Z,102392.27
2019-02-05T15:45:58.359Z,102397.16
2019-02-05T15:48:25.567Z,102387.30
2019-02-05T15:50:53.028Z,102399.07
2019-02-05T15:53:20.463Z,102398.47
2019-02-05T15:55:47.798Z,102402.44
2019-02-05T15:58:14.850Z,102399.97
2019-02-05T16:00:42.317Z,102405.69
2019-02-05T16:03:09.346Z,102406.63
2019-02-05T16:05:36.440Z,102407.70
2019-02-05T16:08:03.935Z,102413.72
2019-02-05T16:10:31.055Z,102411.20
2019-02-05T16:12:58.670Z,102413.36
2019-02-05T16:15:26.379Z,102405.45
2019-02-05T16:17:55.550Z,102407.86
2019-02-05T16:20:22.867Z,102417.98
2019-02-05T16:22:50.515Z,102420.34
2019-02-05T16:25:19.219Z,102411.57
2019-02-05T16:27:47.196Z,102423.42
2019-02-05T16:30:16.796Z,102422.80
2019-02-05T16:32:44.150Z,102434.70
2019-02-05T16:35:12.321Z,102422.52
2019-02-05T16:37:39.688Z,102424.89
2019-02-05T16:40:11.074Z,102430.16
2019-02-05T16:42:38.484Z,102434.47
2019-02-05T16:45:07.847Z,102444.70
2019-02-05T16:47:35.006Z,102438.24
2019-02-05T16:50:02.164Z,102440.66
2019-02-05T16:52:29.749Z,102438.27
2019-02-05T16:54:57.396Z,102440.31
2019-02-05T16:57:25.068Z,102455.45
2019-02-05T16:59:52.421Z,102442.69
2019-02-05T17:02:28.688Z,102454.19
2019-02-05T17:04:49.075Z,102449.98
2019-02-05T17:07:17.149Z,102454.48
2019-02-05T17:09:45.830Z,102454.85
2019-02-05T17:12:12.885Z,102448.89
2019-02-05T17:14:40.845Z,102451.45
2019-02-05T17:17:07.910Z,102450.37
2019-02-05T17:19:35.756Z,102467.28
2019-02-05T17:22:03.093Z,102459.53
2019-02-05T17:24:30.671Z,102465.39
2019-02-05T17:26:59.153Z,102466.07
2019-02-05T17:29:26.503Z,102471.45
2019-02-05T17:31:53.567Z,102476.26
2019-02-05T17:34:20.926Z,102483.87
2019-02-05T17:36:47.956Z,102471.63
2019-02-05T17:39:16.040Z,102476.08
2019-02-05T17:41:43.397Z,102482.16
2019-02-05T17:44:10.424Z,102472.84
2019-02-05T17:46:37.843Z,102485.98
2019-02-05T17:49:04.923Z,102489.23
2019-02-05T17:51:32.793Z,102483.03
2019-02-05T17:54:01.084Z,102492.19
2019-02-05T17:56:28.635Z,102496.30
2019-02-05T17:58:55.677Z,102487.92
2019-02-05T18:01:22.727Z,102494.34
2019-02-05T18:03:49.747Z,102504.98
2019-02-05T18:06:16.843Z,102502.55
2019-02-05T18:08:44.846Z,102501.08
2019-02-05T18:11:12.149Z,102500.05
2019-02-05T18:13:39.900Z,102495.39
2019-02-05T18:16:18.016Z,102496.55
2019-02-05T18:18:45.370Z,102495.64
2019-02-05T18:21:12.403Z,102505.64
2019-02-05T18:23:40.498Z,102507.14
2019-02-05T18:26:07.842Z,102513.94
2019-02-05T18:28:35.271Z,102509.48
2019-02-05T18:31:02.652Z,102513.44
2019-02-05T18:33:29.769Z,102519.92
2019-02-05T18:35:56.781Z,102515.44
2019-02-05T18:38:23.827Z,102517.02
2019-02-05T18:40:50.895Z,102514.40
2019-02-05T18:43:18.319Z,102509.20
2019-02-05T18:45:45.361Z,102514.22
2019-02-05T18:48:12.409Z,102525.22
2019-02-05T18:50:40.489Z,102519.62
2019-02-05T18:53:07.533Z,102519.22
2019-02-05T18:55:35.025Z,102523.52
2019-02-05T18:58:09.474Z,102531.70
2019-02-05T19:00:33.341Z,102528.06
2019-02-05T19:03:00.718Z,102523.75
2019-02-05T19:05:27.934Z,102524.09
2019-02-05T19:07:57.156Z,102521.08
2019-02-05T19:10:26.178Z,102520.95
2019-02-05T19:12:53.204Z,102521.27
2019-02-05T19:15:26.201Z,102531.68
2019-02-05T19:17:53.224Z,102529.53
2019-02-05T19:20:22.524Z,102534.16
2019-02-05T19:22:49.599Z,102536.62
2019-02-05T19:25:42.478Z,102538.05
2019-02-05T19:28:11.563Z,102533.80
2019-02-05T19:30:41.387Z,102541.20
2019-02-05T19:33:08.414Z,102540.30
2019-02-05T19:35:35.486Z,102536.13
2019-02-05T19:38:02.531Z,102538.66
2019-02-05T19:40:30.261Z,102531.73
2019-02-05T19:42:57.607Z,102525.73
2019-02-05T19:45:49.519Z,102529.56
2019-02-05T19:48:27.327Z,102522.69
2019-02-05T19:50:54.648Z,102518.13
2019-02-05T19:53:21.955Z,102523.69
2019-02-05T19:55:49.433Z,102523.26
2019-02-05T19:58:16.458Z,102525.11
2019-02-05T20:00:43.470Z,102526.30
2019-02-05T20:03:11.202Z,102530.83
2019-02-05T20:05:39.263Z,102528.78
2019-02-05T20:08:06.287Z,102537.69
2019-02-05T20:10:33.667Z,102540.47
2019-02-05T20:13:00.796Z,102537.49
2019-02-05T20:15:27.827Z,102536.46
2019-02-05T20:17:54.875Z,102548.65
2019-02-05T20:20:21.926Z,102550.84
2019-02-05T20:22:49.249Z,102546.30
2019-02-05T20:25:16.303Z,102542.85
2019-02-05T20:27:43.348Z,102555.20
2019-02-05T20:30:13.635Z,102553.67
2019-02-05T20:32:41.359Z,102546.33
2019-02-05T20:35:08.564Z,102543.76
2019-02-05T20:37:35.960Z,102553.30
2019-02-05T20:40:06.968Z,102551.24
2019-02-05T20:42:34.414Z,102549.98
2019-02-05T20:45:02.086Z,102549.28
2019-02-05T20:47:29.244Z,102557.86
2019-02-05T20:49:56.348Z,102557.23
2019-02-05T20:52:24.285Z,102556.66
2019-02-05T20:54:51.392Z,102562.60
2019-02-05T20:57:18.495Z,102552.27
2019-02-05T20:59:45.971Z,102559.33
2019-02-05T21:02:15.478Z,102555.94
2019-02-05T21:04:48.402Z,102553.12
2019-02-05T21:07:11.517Z,102551.04
2019-02-05T21:09:42.304Z,102554.81
2019-02-05T21:12:09.775Z,102564.75
2019-02-05T21:14:37.232Z,102552.84
2019-02-05T21:17:04.303Z,102559.70
2019-02-05T21:19:31.766Z,102561.18
2019-02-05T21:22:00.396Z,102561.18
2019-02-05T21:24:27.456Z,102566.77
2019-02-05T21:26:54.547Z,102572.98
2019-02-05T21:29:23.976Z,102566.27
2019-02-05T21:31:51.018Z,102571.06
2019-02-05T21:34:18.067Z,102559.66
2019-02-05T21:36:45.515Z,102565.45
2019-02-05T21:39:12.836Z,102565.41
2019-02-05T21:41:40.586Z,102566.31
2019-02-05T21:44:07.636Z,102563.16
2019-02-05T21:46:35.913Z,102563.08
2019-02-05T21:49:03.572Z,102566.77
2019-02-05T21:51:40.205Z,102568.60
2019-02-05T21:54:00.319Z,102568.55
2019-02-05T21:56:27.679Z,102569.70
2019-02-05T21:58:55.060Z,102567.94
2019-02-05T22:01:22.494Z,102565.20
2019-02-05T22:03:50.154Z,102563.72
2019-02-05T22:06:17.193Z,102568.48
2019-02-05T22:08:44.841Z,102566.72
2019-02-05T22:11:12.317Z,102570.70
2019-02-05T22:13:39.360Z,102566.59
2019-02-05T22:16:06.870Z,102563.86
2019-02-05T22:18:34.492Z,102564.09
2019-02-05T22:21:02.579Z,102548.41
2019-02-05T22:23:31.378Z,102550.81
2019-02-05T22:25:58.418Z,102550.31
2019-02-05T22:28:25.746Z,102558.27
2019-02-05T22:30:53.214Z,102566.09
2019-02-05T22:33:22.001Z,102551.17
2019-02-05T22:35:49.039Z,102563.75
2019-02-05T22:38:16.430Z,102565.62
2019-02-05T22:40:43.466Z,102564.34
2019-02-05T22:43:10.710Z,102564.80
2019-02-05T22:45:41.002Z,102565.81
2019-02-05T22:48:07.869Z,102563.69
2019-02-05T22:50:34.978Z,102566.69
2019-02-05T22:53:02.307Z,102563.18
2019-02-05T22:55:29.386Z,102557.95
2019-02-05T22:57:56.441Z,102559.45
2019-02-05T23:00:39.909Z,102554.61
2019-02-05T23:03:07.893Z,102557.70
2019-02-05T23:06:15.716Z,102553.78
2019-02-05T23:08:42.764Z,102546.91
2019-02-05T23:12:07.337Z,102548.42
2019-02-05T23:14:34.381Z,102541.63
2019-02-05T23:17:02.319Z,102549.30
2019-02-05T23:19:29.388Z,102561.22
2019-02-05T23:21:56.749Z,102556.25
2019-02-05T23:24:23.889Z,102559.32
2019-02-05T23:26:51.482Z,102559.72
2019-02-05T23:29:19.603Z,102553.46
2019-02-05T23:31:46.957Z,102561.96
2019-02-05T23:34:13.997Z,102557.01
2019-02-05T23:36:41.358Z,102555.33
2019-02-05T23:39:08.902Z,102558.25
2019-02-05T23:41:36.850Z,102560.96
2019-02-05T23:44:05.161Z,102555.41
2019-02-05T23:46:32.520Z,102551.00
2019-02-05T23:49:00.484Z,102557.52
2019-02-05T23:51:27.838Z,102561.80
2019-02-05T23:53:55.910Z,102553.33
2019-02-05T23:56:25.834Z,102553.83
2019-02-05T23:58:54.118Z,102556.48
